createdAt,value
2022-12-28T00:00:40.728Z,5.50
2022-12-28T00:04:42.145Z,5.53
2022-12-28T00:08:43.931Z,5.80
2022-12-28T00:12:45.400Z,5.82
2022-12-28T00:16:46.901Z,5.81
2022-12-28T00:20:58.741Z,5.73
2022-12-28T00:25:00.211Z,5.80
2022-12-28T00:29:05.355Z,5.77
2022-12-28T00:33:07.274Z,5.69
2022-12-28T00:37:12.949Z,5.80
2022-12-28T00:41:14.898Z,5.83
2022-12-28T00:45:17.802Z,5.82
2022-12-28T00:49:19.388Z,5.88
2022-12-28T00:53:20.967Z,5.85
2022-12-28T00:57:22.416Z,5.89
2022-12-28T01:01:25.864Z,5.91
2022-12-28T01:05:27.604Z,5.88
2022-12-28T01:09:29.223Z,6.11
2022-12-28T01:13:30.642Z,6.07
2022-12-28T01:17:32.951Z,6.15
2022-12-28T01:21:36.291Z,6.03
2022-12-28T01:25:37.833Z,6.39
2022-12-28T01:29:40.217Z,6.35
2022-12-28T01:33:42.768Z,6.23
2022-12-28T01:37:44.242Z,6.28
2022-12-28T01:41:45.755Z,6.37
2022-12-28T01:45:52.312Z,6.43
2022-12-28T01:49:57.146Z,6.60
2022-12-28T01:54:01.520Z,6.50
2022-12-28T01:58:08.316Z,6.67
2022-12-28T02:02:12.094Z,6.73
2022-12-28T02:06:13.821Z,6.56
2022-12-28T02:10:41.475Z,6.65
2022-12-28T02:14:39.377Z,7.09
2022-12-28T02:18:44.905Z,6.82
2022-12-28T02:23:05.145Z,6.78
2022-12-28T02:27:35.552Z,6.87
2022-12-28T02:31:54.253Z,6.95
2022-12-28T02:36:05.650Z,6.73
2022-12-28T02:40:17.425Z,6.90
2022-12-28T02:44:38.931Z,6.78
2022-12-28T02:49:03.737Z,6.87
2022-12-28T02:53:12.926Z,6.84
2022-12-28T02:57:40.371Z,6.87
2022-12-28T03:02:21.208Z,7.03
2022-12-28T03:06:56.497Z,7.17
2022-12-28T03:11:08.240Z,7.10
2022-12-28T03:15:30.824Z,7.09
2022-12-28T03:19:57.842Z,6.93
2022-12-28T03:24:19.489Z,7.15
2022-12-28T03:28:43.396Z,7.05
2022-12-28T03:32:47.492Z,7.11
2022-12-28T03:36:55.462Z,6.97
2022-12-28T03:41:07.205Z,7.04
2022-12-28T03:45:46.013Z,7.01
2022-12-28T03:49:50.029Z,7.04
2022-12-28T03:53:51.698Z,7.00
2022-12-28T03:57:56.598Z,7.10
2022-12-28T04:02:02.218Z,7.15
2022-12-28T04:06:06.424Z,7.03
2022-12-28T04:10:08.401Z,6.79
2022-12-28T04:14:11.231Z,6.88
2022-12-28T04:18:16.826Z,6.87
2022-12-28T04:22:18.304Z,6.93
2022-12-28T04:26:20.533Z,6.99
2022-12-28T04:30:24.708Z,6.90
2022-12-28T04:34:26.266Z,6.90
2022-12-28T04:38:48.067Z,6.80
2022-12-28T04:42:49.881Z,6.72
2022-12-28T04:46:51.331Z,6.59
2022-12-28T04:50:54.053Z,6.53
2022-12-28T04:54:55.475Z,6.53
2022-12-28T04:58:59.417Z,6.52
2022-12-28T05:03:01.164Z,6.28
2022-12-28T05:07:02.830Z,6.38
2022-12-28T05:11:06.594Z,6.33
2022-12-28T05:15:08.476Z,6.37
2022-12-28T05:19:09.939Z,6.09
2022-12-28T05:23:11.368Z,6.25
2022-12-28T05:27:12.773Z,6.06
2022-12-28T05:31:17.420Z,6.11
2022-12-28T05:35:18.872Z,5.95
2022-12-28T05:39:20.342Z,5.96
2022-12-28T05:43:21.773Z,6.20
2022-12-28T05:47:23.200Z,6.05
2022-12-28T05:51:29.666Z,6.28
2022-12-28T05:55:31.083Z,6.17
2022-12-28T05:59:32.511Z,6.00
2022-12-28T06:03:34.493Z,6.12
2022-12-28T06:07:36.127Z,6.15
2022-12-28T06:11:37.955Z,6.27
2022-12-28T06:15:39.376Z,6.22
2022-12-28T06:19:40.824Z,6.13
2022-12-28T06:23:43.372Z,6.21
2022-12-28T06:27:44.841Z,6.22
2022-12-28T06:31:47.492Z,6.19
2022-12-28T06:35:48.928Z,6.38
2022-12-28T06:39:50.362Z,6.30
2022-12-28T06:43:52.823Z,6.28
2022-12-28T06:47:54.221Z,6.00
2022-12-28T06:51:55.644Z,5.98
2022-12-28T06:56:02.656Z,6.03
2022-12-28T07:00:04.736Z,6.00
2022-12-28T07:04:08.179Z,6.03
2022-12-28T07:08:12.699Z,6.13
2022-12-28T07:12:14.731Z,6.33
2022-12-28T07:16:18.841Z,6.10
2022-12-28T07:20:20.803Z,6.27
2022-12-28T07:24:22.227Z,6.19
2022-12-28T07:28:24.588Z,6.34
2022-12-28T07:32:26.014Z,6.16
2022-12-28T07:36:29.878Z,6.28
2022-12-28T07:40:31.348Z,6.20
2022-12-28T07:44:36.854Z,6.43
2022-12-28T07:48:40.487Z,6.36
2022-12-28T07:52:41.924Z,6.55
2022-12-28T08:00:43.757Z,6.45
2022-12-28T08:04:50.391Z,6.38
2022-12-28T08:09:00.761Z,6.63
2022-12-28T08:13:22.139Z,6.50
2022-12-28T08:17:23.506Z,6.31
2022-12-28T08:21:28.958Z,6.86
2022-12-28T08:25:30.386Z,6.71
2022-12-28T08:29:32.172Z,6.66
2022-12-28T08:33:33.675Z,6.65
2022-12-28T08:37:35.114Z,6.77
2022-12-28T08:41:36.637Z,6.66
2022-12-28T08:45:38.107Z,6.76
2022-12-28T08:49:39.810Z,6.97
2022-12-28T08:53:42.171Z,7.06
2022-12-28T08:57:43.665Z,7.10
2022-12-28T09:01:46.421Z,6.93
2022-12-28T09:05:51.267Z,6.73
2022-12-28T09:09:55.831Z,6.86
2022-12-28T09:13:57.380Z,6.84
2022-12-28T09:17:58.901Z,6.93
2022-12-28T09:22:00.330Z,6.94
2022-12-28T09:26:05.312Z,6.98
2022-12-28T09:30:07.773Z,7.02
2022-12-28T09:38:34.257Z,7.40
2022-12-28T09:42:40.934Z,7.41
2022-12-28T09:47:02.701Z,7.49
2022-12-28T09:51:04.741Z,7.60
2022-12-28T09:55:12.348Z,7.74
2022-12-28T09:59:22.522Z,7.92
2022-12-28T10:03:34.774Z,8.00
2022-12-28T10:07:37.546Z,8.00
2022-12-28T10:11:41.982Z,7.96
2022-12-28T10:15:44.091Z,8.22
2022-12-28T10:19:47.274Z,8.44
2022-12-28T10:28:16.756Z,8.42
2022-12-28T10:32:19.252Z,8.51
2022-12-28T10:36:20.974Z,8.70
2022-12-28T10:40:32.646Z,8.49
2022-12-28T10:44:40.065Z,8.72
2022-12-28T10:48:47.337Z,8.56
2022-12-28T10:53:26.555Z,8.79
2022-12-28T10:57:30.824Z,8.84
2022-12-28T11:01:32.326Z,8.93
2022-12-28T11:05:34.574Z,8.98
2022-12-28T11:09:36.073Z,8.96
2022-12-28T11:13:39.440Z,8.97
2022-12-28T11:17:41.215Z,9.13
2022-12-28T11:21:43.420Z,9.07
2022-12-28T11:25:45.400Z,9.10
2022-12-28T11:29:49.853Z,9.32
2022-12-28T11:33:56.222Z,9.04
2022-12-28T11:38:03.338Z,8.98
2022-12-28T11:42:38.443Z,8.99
2022-12-28T11:46:26.403Z,8.97
2022-12-28T11:50:33.975Z,9.05
2022-12-28T11:54:54.027Z,9.16
2022-12-28T11:58:58.347Z,9.15
2022-12-28T12:03:01.183Z,9.18
2022-12-28T12:07:02.882Z,9.32
2022-12-28T12:11:28.752Z,9.46
2022-12-28T12:15:37.568Z,9.56
2022-12-28T12:19:42.936Z,9.23
2022-12-28T12:23:52.552Z,9.59
2022-12-28T12:27:58.250Z,9.60
2022-12-28T12:32:06.233Z,9.55
2022-12-28T12:36:16.496Z,9.55
2022-12-28T12:40:55.364Z,9.65
2022-12-28T12:45:07.624Z,9.80
2022-12-28T12:49:12.030Z,9.65
2022-12-28T12:53:32.314Z,9.49
2022-12-28T12:57:52.515Z,9.84
2022-12-28T13:02:09.235Z,9.86
2022-12-28T13:06:16.252Z,9.77
2022-12-28T13:10:26.388Z,9.97
2022-12-28T13:14:28.280Z,9.94
2022-12-28T13:18:46.644Z,10.11
2022-12-28T13:22:49.159Z,9.92
2022-12-28T13:26:51.528Z,9.88
2022-12-28T13:31:09.136Z,9.80
2022-12-28T13:35:25.411Z,9.72
2022-12-28T13:39:30.118Z,9.51
2022-12-28T13:44:05.187Z,9.64
2022-12-28T13:48:08.235Z,9.72
2022-12-28T13:52:15.369Z,9.59
2022-12-28T13:56:18.831Z,9.80
2022-12-28T14:00:22.002Z,9.80
2022-12-28T14:04:51.913Z,10.01
2022-12-28T14:08:47.675Z,10.07
2022-12-28T14:12:50.415Z,10.12
2022-12-28T14:16:52.062Z,10.14
2022-12-28T14:20:55.775Z,10.09
2022-12-28T14:25:14.589Z,10.07
2022-12-28T14:29:24.447Z,10.16
2022-12-28T14:33:27.756Z,10.03
2022-12-28T14:37:37.311Z,10.11
2022-12-28T14:41:41.160Z,9.88
2022-12-28T14:46:04.886Z,9.92
2022-12-28T14:50:21.207Z,9.94
2022-12-28T14:54:43.058Z,9.99
2022-12-28T14:58:55.110Z,9.99
2022-12-28T15:03:11.454Z,9.86
2022-12-28T15:07:13.181Z,9.99
2022-12-28T15:11:17.567Z,9.88
2022-12-28T15:15:19.019Z,9.84
2022-12-28T15:19:20.436Z,10.05
2022-12-28T15:23:22.080Z,10.13
2022-12-28T15:27:23.514Z,9.94
2022-12-28T15:31:25.025Z,10.02
2022-12-28T15:35:26.537Z,9.89
2022-12-28T15:39:28.007Z,9.71
2022-12-28T15:43:29.662Z,9.83
2022-12-28T15:47:31.226Z,9.91
2022-12-28T15:51:33.192Z,10.02
2022-12-28T15:55:34.609Z,9.92
2022-12-28T15:59:36.204Z,9.95
2022-12-28T16:03:37.660Z,10.20
2022-12-28T16:07:39.157Z,10.22
2022-12-28T16:11:41.641Z,10.22
2022-12-28T16:15:43.033Z,10.35
2022-12-28T16:19:44.674Z,10.30
2022-12-28T16:23:46.277Z,10.49
2022-12-28T16:27:47.772Z,10.33
2022-12-28T16:31:49.270Z,10.36
2022-12-28T16:35:56.052Z,10.42
2022-12-28T16:40:00.779Z,10.39
2022-12-28T16:44:09.171Z,10.35
2022-12-28T16:48:13.358Z,10.41
2022-12-28T16:52:14.764Z,10.27
2022-12-28T16:56:16.211Z,10.48
2022-12-28T17:00:17.798Z,10.49
2022-12-28T17:04:19.756Z,10.52
2022-12-28T17:08:21.288Z,10.28
2022-12-28T17:12:22.766Z,10.40
2022-12-28T17:16:24.298Z,10.47
2022-12-28T17:20:27.476Z,10.36
2022-12-28T17:24:29.013Z,10.39
2022-12-28T17:28:30.567Z,10.40
2022-12-28T17:32:31.956Z,10.29
2022-12-28T17:36:33.382Z,10.33
2022-12-28T17:40:34.814Z,10.29
2022-12-28T17:44:36.258Z,10.20
2022-12-28T17:48:37.707Z,10.24
2022-12-28T17:52:40.063Z,10.24
2022-12-28T17:56:42.698Z,10.12
2022-12-28T18:00:44.238Z,10.08
2022-12-28T18:04:45.754Z,9.99
2022-12-28T18:08:47.602Z,9.95
2022-12-28T18:12:49.912Z,10.24
2022-12-28T18:16:51.473Z,10.16
2022-12-28T18:20:59.787Z,10.19
2022-12-28T18:25:01.225Z,10.09
2022-12-28T18:29:02.803Z,10.08
2022-12-28T18:33:04.244Z,10.19
2022-12-28T18:37:06.020Z,10.25
2022-12-28T18:41:07.462Z,10.36
2022-12-28T18:45:09.230Z,10.10
2022-12-28T18:49:10.681Z,10.16
2022-12-28T18:53:12.096Z,10.33
2022-12-28T18:57:13.640Z,10.07
2022-12-28T19:01:55.346Z,10.18
2022-12-28T19:05:39.596Z,10.00
2022-12-28T19:10:04.975Z,9.94
2022-12-28T19:14:12.264Z,10.10
2022-12-28T19:18:13.724Z,10.11
2022-12-28T19:22:15.103Z,10.05
2022-12-28T19:26:16.520Z,10.10
2022-12-28T19:30:18.021Z,10.16
2022-12-28T19:34:19.485Z,10.27
2022-12-28T19:38:20.939Z,10.16
2022-12-28T19:42:22.404Z,10.10
2022-12-28T19:46:30.839Z,10.10
2022-12-28T19:50:32.909Z,10.06
2022-12-28T19:54:34.662Z,9.97
2022-12-28T19:58:36.923Z,10.03
2022-12-28T20:02:38.434Z,9.93
2022-12-28T20:06:40.713Z,10.15
2022-12-28T20:10:42.159Z,10.07
2022-12-28T20:14:43.622Z,10.09
2022-12-28T20:18:49.324Z,10.05
2022-12-28T20:22:50.775Z,10.09
2022-12-28T20:26:57.981Z,10.26
2022-12-28T20:31:05.015Z,9.89
2022-12-28T20:35:06.699Z,10.09
2022-12-28T20:39:08.186Z,9.81
2022-12-28T20:43:24.496Z,9.73
2022-12-28T20:47:25.961Z,9.88
2022-12-28T20:51:28.137Z,9.81
2022-12-28T20:55:29.583Z,10.08
2022-12-28T20:59:31.120Z,9.74
2022-12-28T21:03:32.687Z,9.92
2022-12-28T21:07:34.154Z,9.81
2022-12-28T21:11:35.664Z,9.92
2022-12-28T21:15:40.073Z,9.73
2022-12-28T21:19:41.523Z,9.86
2022-12-28T21:23:43.308Z,9.72
2022-12-28T21:27:44.798Z,9.56
2022-12-28T21:31:46.380Z,9.74
2022-12-28T21:36:07.667Z,9.56
2022-12-28T21:40:10.134Z,9.65
2022-12-28T21:44:13.797Z,9.57
2022-12-28T21:48:15.223Z,9.51
2022-12-28T21:52:16.707Z,9.46
2022-12-28T21:56:18.155Z,9.53
2022-12-28T22:00:46.446Z,9.36
2022-12-28T22:05:06.417Z,9.35
2022-12-28T22:09:31.096Z,9.37
2022-12-28T22:13:32.528Z,9.51
2022-12-28T22:17:33.951Z,9.64
2022-12-28T22:21:36.068Z,9.53
2022-12-28T22:25:38.089Z,9.40
2022-12-28T22:29:39.508Z,9.44
2022-12-28T22:33:40.953Z,9.51
2022-12-28T22:37:42.807Z,9.44
2022-12-28T22:41:44.361Z,9.41
2022-12-28T22:45:45.796Z,9.38
2022-12-28T22:49:47.240Z,9.36
2022-12-28T22:53:49.885Z,9.16
2022-12-28T22:57:51.341Z,9.13
2022-12-28T23:01:53.743Z,9.07
2022-12-28T23:05:55.252Z,9.19
2022-12-28T23:09:56.687Z,9.20
2022-12-28T23:14:17.489Z,9.13
2022-12-28T23:18:37.698Z,9.37
2022-12-28T23:22:57.609Z,9.42
2022-12-28T23:27:19.226Z,9.29
2022-12-28T23:31:20.733Z,9.18
2022-12-28T23:35:23.804Z,9.37
2022-12-28T23:39:25.309Z,9.49
2022-12-28T23:43:26.746Z,9.34
2022-12-28T23:47:28.193Z,9.17
2022-12-28T23:51:29.613Z,9.01
2022-12-28T23:55:31.039Z,9.25
2022-12-28T23:59:32.506Z,9.14
